Terminal Aerodrome Forecast
Issued by NWS Hastings, NE

Home | Current Version | Previous Version | Text Only | Print | Product List | Glossary On
Versions: 1 2 3 4 5 6 7 8 9 10 11 12 13 14 15 16 17
000
FTUS45 KGID 222343
TAFEAR
TAF
KEAR 222343Z 2300/2324 35010KT P6SM FEW250
     FM230400 03010KT P6SM BKN250
     FM230800 05012KT P6SM SCT015 BKN100
     FM231100 05012G18KT P6SM SCT010 BKN015
     FM231700 07017G24KT P6SM -SHRA BKN010
      AMD LTD TO CLD VIS AND WIND=

USA.gov is the U.S. government's official web portal to all federal, state and local government web resources and services.